createdAt,value
2022-08-16T00:03:47.723Z,11.73
2022-08-16T00:08:55.044Z,11.93
2022-08-16T00:13:58.913Z,11.68
2022-08-16T00:19:04.391Z,12.73
2022-08-16T00:24:11.521Z,13.25
2022-08-16T00:34:43.359Z,20.80
2022-08-16T00:39:57.502Z,22.50
2022-08-16T00:45:09.463Z,24.92
2022-08-16T00:50:17.908Z,26.35
2022-08-16T00:55:25.958Z,25.42
2022-08-16T01:00:42.174Z,22.92
2022-08-16T01:05:49.955Z,19.65
2022-08-16T01:10:59.924Z,20.70
2022-08-16T01:16:10.466Z,20.73
2022-08-16T01:21:33.749Z,16.70
2022-08-16T01:26:45.385Z,15.82
2022-08-16T01:31:49.626Z,19.35
2022-08-16T01:37:02.114Z,14.27
2022-08-16T01:42:12.134Z,16.85
2022-08-16T01:47:17.494Z,14.27
2022-08-16T01:52:29.873Z,17.17
2022-08-16T01:57:38.088Z,13.13
2022-08-16T02:02:42.409Z,13.75
2022-08-16T02:07:48.199Z,16.42
2022-08-16T02:13:00.765Z,13.05
2022-08-16T02:18:12.497Z,12.63
2022-08-16T02:23:18.204Z,16.23
2022-08-16T02:28:26.199Z,17.05
2022-08-16T02:38:54.584Z,14.20
2022-08-16T02:44:00.086Z,18.05
2022-08-16T02:49:07.274Z,19.12
2022-08-16T02:54:13.758Z,16.80
2022-08-16T02:59:23.389Z,16.23
2022-08-16T03:04:49.558Z,19.75
2022-08-16T03:09:51.079Z,19.67
2022-08-16T03:14:58.224Z,17.30
2022-08-16T03:20:03.160Z,21.65
2022-08-16T03:25:11.925Z,19.85
2022-08-16T03:30:21.445Z,17.17
2022-08-16T03:35:33.418Z,22.30
2022-08-16T03:40:38.966Z,18.08
2022-08-16T03:45:46.129Z,19.08
2022-08-16T03:51:00.076Z,24.52
2022-08-16T03:56:19.932Z,20.70
2022-08-16T04:01:29.429Z,21.40
2022-08-16T04:06:34.361Z,23.50
2022-08-16T04:11:38.284Z,23.70
2022-08-16T04:16:43.633Z,24.37
2022-08-16T04:21:52.598Z,23.50
2022-08-16T04:27:01.176Z,31.05
2022-08-16T04:32:09.233Z,36.42
2022-08-16T04:37:16.228Z,28.38
2022-08-16T04:42:26.226Z,29.33
2022-08-16T04:47:36.111Z,29.20
2022-08-16T04:52:40.600Z,26.73
2022-08-16T04:57:45.864Z,30.37
2022-08-16T05:03:02.624Z,30.58
2022-08-16T05:08:29.961Z,25.50
2022-08-16T05:13:41.604Z,31.25
2022-08-16T05:18:49.359Z,26.90
2022-08-16T05:23:58.625Z,26.42
2022-08-16T05:29:06.864Z,29.92
2022-08-16T05:34:21.326Z,31.80
2022-08-16T05:39:28.202Z,29.12
2022-08-16T05:44:32.160Z,28.12
2022-08-16T05:49:40.266Z,32.17
2022-08-16T05:54:47.556Z,26.48
2022-08-16T05:59:59.508Z,33.90
2022-08-16T06:05:07.533Z,30.90
2022-08-16T06:10:14.940Z,30.92
2022-08-16T06:15:36.228Z,26.17
2022-08-16T06:20:55.489Z,30.17
2022-08-16T06:26:00.365Z,29.77
2022-08-16T06:31:05.834Z,27.15
2022-08-16T06:36:13.884Z,26.83
2022-08-16T06:41:19.662Z,30.17
2022-08-16T06:46:32.050Z,29.87
2022-08-16T06:51:46.639Z,31.50
2022-08-16T06:56:54.127Z,28.42
2022-08-16T07:01:59.779Z,30.17
2022-08-16T07:07:05.930Z,30.90
2022-08-16T07:12:10.528Z,27.35
2022-08-16T07:17:15.657Z,26.05
2022-08-16T07:22:38.719Z,27.87
2022-08-16T07:27:45.627Z,32.25
2022-08-16T07:32:52.097Z,31.45
2022-08-16T07:37:58.663Z,26.45
2022-08-16T07:43:03.566Z,33.92
2022-08-16T07:48:11.565Z,29.60
2022-08-16T07:53:19.579Z,29.95
2022-08-16T07:58:35.206Z,31.70
2022-08-16T08:03:48.307Z,25.60
2022-08-16T08:08:57.041Z,23.75
2022-08-16T08:14:03.652Z,29.63
2022-08-16T08:19:12.916Z,27.60
2022-08-16T08:29:36.546Z,25.25
2022-08-16T08:34:42.142Z,26.30
2022-08-16T08:39:54.626Z,27.77
2022-08-16T08:44:59.586Z,24.67
2022-08-16T08:50:03.762Z,22.35
2022-08-16T08:55:13.481Z,24.83
2022-08-16T09:00:21.197Z,24.33
2022-08-16T09:05:35.791Z,22.95
2022-08-16T09:10:42.823Z,19.12
2022-08-16T09:15:49.435Z,25.35
2022-08-16T09:20:58.748Z,20.08
2022-08-16T09:26:43.965Z,14.13
2022-08-16T09:31:29.609Z,18.73
2022-08-16T09:36:34.326Z,15.75
2022-08-16T09:41:39.527Z,15.48
2022-08-16T09:46:48.261Z,17.75
2022-08-16T09:51:54.888Z,15.45
2022-08-16T09:57:01.169Z,8.90
2022-08-16T10:02:26.889Z,13.13
2022-08-16T10:07:44.522Z,7.72
2022-08-16T10:13:08.311Z,15.27
2022-08-16T10:18:56.599Z,12.30
2022-08-16T10:23:37.563Z,10.93
2022-08-16T10:28:43.358Z,12.23
2022-08-16T10:33:47.429Z,11.23
2022-08-16T10:38:52.198Z,12.27
2022-08-16T10:43:58.269Z,12.82
2022-08-16T10:49:05.087Z,10.50
2022-08-16T10:54:28.828Z,10.27
2022-08-16T10:59:44.068Z,10.35
2022-08-16T11:05:07.043Z,9.15
2022-08-16T11:20:59.626Z,12.00
2022-08-16T11:26:16.297Z,4.62
2022-08-16T11:31:28.384Z,6.93
2022-08-16T11:36:37.146Z,8.15
2022-08-16T11:41:43.612Z,5.65
2022-08-16T11:46:48.898Z,7.28
2022-08-16T11:51:52.890Z,6.50
2022-08-16T11:56:57.149Z,4.45
2022-08-16T12:02:31.606Z,8.10
2022-08-16T12:07:26.740Z,5.60
2022-08-16T12:12:32.711Z,7.37
2022-08-16T12:17:40.978Z,6.70
2022-08-16T12:22:45.257Z,5.60
2022-08-16T12:27:51.081Z,7.40
2022-08-16T12:32:57.901Z,7.15
2022-08-16T12:43:26.856Z,6.50
2022-08-16T12:48:55.029Z,5.22
2022-08-16T12:54:01.371Z,6.10
2022-08-16T12:59:09.596Z,9.45
2022-08-16T13:04:20.537Z,7.62
2022-08-16T13:09:26.126Z,6.45
2022-08-16T13:14:34.147Z,4.43
2022-08-16T13:25:06.534Z,6.80
2022-08-16T13:30:35.449Z,8.98
2022-08-16T13:35:42.793Z,9.48
2022-08-16T13:40:49.688Z,8.43
2022-08-16T13:45:55.686Z,5.22
2022-08-16T13:51:04.107Z,7.10
2022-08-16T13:56:08.146Z,7.85
2022-08-16T14:01:14.380Z,5.20
2022-08-16T14:06:22.091Z,8.17
2022-08-16T14:11:26.420Z,10.77
2022-08-16T14:16:34.056Z,4.90
2022-08-16T14:21:43.008Z,6.55
2022-08-16T14:26:59.630Z,10.82
2022-08-16T14:32:09.238Z,11.82
2022-08-16T14:37:14.681Z,4.32
2022-08-16T14:42:21.221Z,9.35
2022-08-16T14:47:25.234Z,8.20
2022-08-16T14:52:56.382Z,6.57
2022-08-16T14:58:00.842Z,4.37
2022-08-16T15:03:09.627Z,3.60
2022-08-16T15:08:17.062Z,9.73
2022-08-16T15:13:22.452Z,9.55
2022-08-16T15:18:27.894Z,5.28
2022-08-16T15:23:34.333Z,3.97
2022-08-16T15:28:38.346Z,5.10
2022-08-16T15:33:48.631Z,2.95
2022-08-16T15:39:05.762Z,5.87
2022-08-16T15:44:25.640Z,7.65
2022-08-16T15:49:34.746Z,6.30
2022-08-16T15:54:52.458Z,2.25
2022-08-16T16:00:04.918Z,3.78
2022-08-16T16:05:19.966Z,6.10
2022-08-16T16:10:29.487Z,3.47
2022-08-16T16:15:37.522Z,8.05
2022-08-16T16:20:47.584Z,5.60
2022-08-16T16:25:54.736Z,5.47
2022-08-16T16:30:58.834Z,3.20
2022-08-16T16:36:03.957Z,7.93
2022-08-16T16:41:13.254Z,6.28
2022-08-16T16:46:40.411Z,3.28
2022-08-16T16:51:44.858Z,4.50
2022-08-16T16:56:52.314Z,3.20
2022-08-16T17:02:38.224Z,5.28
2022-08-16T17:07:24.423Z,7.57
2022-08-16T17:12:47.308Z,9.68
2022-08-16T17:19:14.677Z,4.95
2022-08-16T17:23:16.506Z,4.50
2022-08-16T17:33:54.365Z,5.32
2022-08-16T17:39:00.067Z,5.50
2022-08-16T17:44:05.575Z,6.25
2022-08-16T17:49:09.291Z,5.53
2022-08-16T17:54:18.795Z,8.43
2022-08-16T17:59:40.852Z,3.92
2022-08-16T18:04:49.374Z,5.47
2022-08-16T18:09:54.728Z,4.22
2022-08-16T18:15:00.469Z,3.72
2022-08-16T18:20:05.029Z,4.00
2022-08-16T18:25:09.561Z,5.05
2022-08-16T18:30:17.566Z,8.32
2022-08-16T18:35:22.321Z,6.15
2022-08-16T18:40:26.598Z,4.03
2022-08-16T18:45:35.165Z,3.42
2022-08-16T18:50:59.474Z,3.90
2022-08-16T18:56:05.435Z,5.10
2022-08-16T19:01:10.540Z,5.78
2022-08-16T19:06:16.160Z,7.32
2022-08-16T19:11:23.402Z,4.07
2022-08-16T19:16:28.532Z,6.68
2022-08-16T19:21:32.419Z,10.70
2022-08-16T19:26:36.208Z,9.48
2022-08-16T19:31:41.648Z,10.68
2022-08-16T19:36:45.372Z,9.98
2022-08-16T19:41:53.489Z,7.65
2022-08-16T19:46:59.259Z,16.15
2022-08-16T19:52:11.706Z,15.43
2022-08-16T19:57:17.670Z,9.35
2022-08-16T20:02:35.625Z,16.50
2022-08-16T20:07:40.201Z,15.80
2022-08-16T20:13:02.524Z,22.67
2022-08-16T20:18:12.686Z,24.98
2022-08-16T20:23:29.002Z,22.33
2022-08-16T20:28:51.651Z,29.33
2022-08-16T20:33:57.864Z,25.75
2022-08-16T20:39:04.145Z,24.75
2022-08-16T20:44:08.171Z,29.65
2022-08-16T20:49:15.032Z,26.70
2022-08-16T20:54:18.845Z,25.92
2022-08-16T20:59:22.672Z,27.95
2022-08-16T21:04:29.939Z,37.42
2022-08-16T21:09:35.896Z,33.37
2022-08-16T21:14:39.836Z,27.00
2022-08-16T21:19:46.057Z,32.70
2022-08-16T21:24:54.121Z,33.38
2022-08-16T21:29:58.097Z,44.03
2022-08-16T21:35:08.062Z,34.58
2022-08-16T21:40:13.475Z,32.15
2022-08-16T21:45:17.439Z,36.83
2022-08-16T21:50:22.604Z,35.53
2022-08-16T21:55:26.430Z,32.13
2022-08-16T22:00:30.728Z,35.60
2022-08-16T22:05:36.017Z,39.33
2022-08-16T22:11:07.669Z,40.35
2022-08-16T22:16:04.811Z,42.60
2022-08-16T22:21:09.891Z,34.28
2022-08-16T22:26:14.718Z,40.05
2022-08-16T22:31:19.029Z,41.30
2022-08-16T22:36:28.929Z,41.57
2022-08-16T22:41:34.555Z,32.53
2022-08-16T22:46:38.476Z,39.97
2022-08-16T22:51:43.523Z,41.03
2022-08-16T22:56:47.219Z,39.00
2022-08-16T23:01:51.015Z,47.38
2022-08-16T23:06:56.116Z,39.53
2022-08-16T23:12:03.774Z,42.72
2022-08-16T23:17:07.816Z,42.08
2022-08-16T23:22:12.946Z,41.28
2022-08-16T23:27:17.081Z,38.30
2022-08-16T23:32:20.964Z,43.87
2022-08-16T23:37:26.497Z,43.28
2022-08-16T23:42:52.418Z,43.20
2022-08-16T23:47:54.882Z,44.58
2022-08-16T23:53:04.632Z,45.72
2022-08-16T23:58:09.247Z,47.30
